sensor_id;sensor_type;location;lat;lon;timestamp;pressure;altitude;pressure_sealevel;temperature;humidity
55066;BME280;40964;42.114;24.220;2023-03-26T00:00:44;97109.19;;;11.27;97.26
55066;BME280;40964;42.114;24.220;2023-03-26T00:03:14;97107.38;;;11.27;96.84
55066;BME280;40964;42.114;24.220;2023-03-26T00:05:41;97104.72;;;11.27;96.67
55066;BME280;40964;42.114;24.220;2023-03-26T00:08:08;97092.13;;;11.29;95.96
55066;BME280;40964;42.114;24.220;2023-03-26T00:10:39;97101.78;;;11.41;95.68
55066;BME280;40964;42.114;24.220;2023-03-26T00:13:05;97109.22;;;11.44;94.65
55066;BME280;40964;42.114;24.220;2023-03-26T00:15:33;97114.00;;;11.47;91.91
55066;BME280;40964;42.114;24.220;2023-03-26T00:17:59;97122.00;;;11.52;92.14
55066;BME280;40964;42.114;24.220;2023-03-26T00:20:28;97110.50;;;11.58;90.98
55066;BME280;40964;42.114;24.220;2023-03-26T00:22:54;97102.84;;;11.56;90.05
55066;BME280;40964;42.114;24.220;2023-03-26T00:25:21;97105.88;;;11.65;88.80
55066;BME280;40964;42.114;24.220;2023-03-26T00:27:48;97123.03;;;11.68;87.83
55066;BME280;40964;42.114;24.220;2023-03-26T00:30:14;97118.88;;;11.72;86.92
55066;BME280;40964;42.114;24.220;2023-03-26T00:32:41;97133.16;;;11.76;85.44
55066;BME280;40964;42.114;24.220;2023-03-26T00:35:06;97128.06;;;11.69;85.18
55066;BME280;40964;42.114;24.220;2023-03-26T00:37:32;97129.97;;;11.57;85.35
55066;BME280;40964;42.114;24.220;2023-03-26T00:39:58;97138.25;;;11.49;85.52
55066;BME280;40964;42.114;24.220;2023-03-26T00:42:27;97135.00;;;11.42;85.37
55066;BME280;40964;42.114;24.220;2023-03-26T00:44:53;97152.81;;;11.51;84.25
55066;BME280;40964;42.114;24.220;2023-03-26T00:47:22;97170.66;;;11.49;84.10
55066;BME280;40964;42.114;24.220;2023-03-26T00:49:48;97175.84;;;11.44;83.46
55066;BME280;40964;42.114;24.220;2023-03-26T00:52:15;97181.25;;;11.37;85.54
55066;BME280;40964;42.114;24.220;2023-03-26T00:54:44;97183.38;;;11.24;86.70
55066;BME280;40964;42.114;24.220;2023-03-26T00:57:10;97182.25;;;11.20;87.77
55066;BME280;40964;42.114;24.220;2023-03-26T00:59:37;97189.47;;;11.13;88.65
55066;BME280;40964;42.114;24.220;2023-03-26T01:02:03;97196.72;;;11.05;88.36
55066;BME280;40964;42.114;24.220;2023-03-26T01:04:31;97200.38;;;11.04;88.71
55066;BME280;40964;42.114;24.220;2023-03-26T01:07:13;97199.13;;;11.07;88.02
55066;BME280;40964;42.114;24.220;2023-03-26T01:09:42;97191.53;;;11.11;88.36
55066;BME280;40964;42.114;24.220;2023-03-26T01:12:13;97198.44;;;11.00;88.96
55066;BME280;40964;42.114;24.220;2023-03-26T01:14:43;97200.41;;;10.93;87.93
55066;BME280;40964;42.114;24.220;2023-03-26T01:17:10;97187.44;;;11.03;84.64
55066;BME280;40964;42.114;24.220;2023-03-26T01:19:50;97201.84;;;11.12;83.86
55066;BME280;40964;42.114;24.220;2023-03-26T01:22:24;97198.19;;;11.42;79.39
55066;BME280;40964;42.114;24.220;2023-03-26T01:24:51;97187.03;;;11.68;75.80
55066;BME280;40964;42.114;24.220;2023-03-26T01:33:01;97187.84;;;12.36;68.58
55066;BME280;40964;42.114;24.220;2023-03-26T01:35:37;97184.97;;;12.37;66.54
55066;BME280;40964;42.114;24.220;2023-03-26T01:38:45;97196.66;;;12.63;65.16
55066;BME280;40964;42.114;24.220;2023-03-26T01:41:20;97173.19;;;12.62;65.54
55066;BME280;40964;42.114;24.220;2023-03-26T01:46:21;97175.88;;;12.67;63.63
55066;BME280;40964;42.114;24.220;2023-03-26T01:48:48;97170.13;;;12.70;63.06
55066;BME280;40964;42.114;24.220;2023-03-26T01:51:26;97165.31;;;12.67;63.31
55066;BME280;40964;42.114;24.220;2023-03-26T01:53:56;97159.50;;;12.65;63.83
55066;BME280;40964;42.114;24.220;2023-03-26T01:56:27;97162.63;;;12.62;63.71
55066;BME280;40964;42.114;24.220;2023-03-26T02:02:09;97147.16;;;12.70;65.84
55066;BME280;40964;42.114;24.220;2023-03-26T02:07:21;97149.06;;;12.75;66.15
55066;BME280;40964;42.114;24.220;2023-03-26T02:09:54;97157.47;;;12.72;66.21
55066;BME280;40964;42.114;24.220;2023-03-26T02:12:22;97160.41;;;12.75;65.56
55066;BME280;40964;42.114;24.220;2023-03-26T02:14:49;97172.00;;;12.74;65.65
55066;BME280;40964;42.114;24.220;2023-03-26T02:17:14;97166.69;;;12.69;66.39
55066;BME280;40964;42.114;24.220;2023-03-26T02:19:41;97171.25;;;12.57;66.59
55066;BME280;40964;42.114;24.220;2023-03-26T02:22:11;97181.00;;;12.57;67.25
55066;BME280;40964;42.114;24.220;2023-03-26T02:24:43;97178.31;;;12.52;67.47
55066;BME280;40964;42.114;24.220;2023-03-26T02:27:09;97193.41;;;12.56;67.58
55066;BME280;40964;42.114;24.220;2023-03-26T02:29:37;97199.00;;;12.60;67.35
55066;BME280;40964;42.114;24.220;2023-03-26T02:32:05;97202.84;;;12.52;68.11
55066;BME280;40964;42.114;24.220;2023-03-26T02:34:31;97202.72;;;12.42;67.99
55066;BME280;40964;42.114;24.220;2023-03-26T02:36:57;97217.34;;;12.33;68.96
55066;BME280;40964;42.114;24.220;2023-03-26T02:39:23;97213.53;;;12.24;69.37
55066;BME280;40964;42.114;24.220;2023-03-26T02:41:48;97211.94;;;12.23;69.07
55066;BME280;40964;42.114;24.220;2023-03-26T02:44:14;97227.50;;;12.24;69.11
55066;BME280;40964;42.114;24.220;2023-03-26T02:46:39;97230.31;;;12.17;68.70
55066;BME280;40964;42.114;24.220;2023-03-26T02:49:05;97233.63;;;12.13;69.07
55066;BME280;40964;42.114;24.220;2023-03-26T02:51:31;97235.06;;;12.04;69.96
55066;BME280;40964;42.114;24.220;2023-03-26T02:54:02;97230.63;;;11.87;70.39
55066;BME280;40964;42.114;24.220;2023-03-26T02:56:28;97228.06;;;11.92;68.59
55066;BME280;40964;42.114;24.220;2023-03-26T02:58:54;97224.97;;;11.96;68.50
55066;BME280;40964;42.114;24.220;2023-03-26T03:01:20;97193.09;;;11.80;68.87
55066;BME280;40964;42.114;24.220;2023-03-26T03:03:47;97221.97;;;11.92;68.65
55066;BME280;40964;42.114;24.220;2023-03-26T03:06:14;97227.97;;;11.87;67.96
55066;BME280;40964;42.114;24.220;2023-03-26T03:08:41;97231.81;;;11.97;67.65
55066;BME280;40964;42.114;24.220;2023-03-26T03:11:08;97227.34;;;11.97;67.19
55066;BME280;40964;42.114;24.220;2023-03-26T03:13:34;97227.59;;;11.96;67.42
55066;BME280;40964;42.114;24.220;2023-03-26T03:16:00;97236.19;;;11.91;68.14
55066;BME280;40964;42.114;24.220;2023-03-26T03:18:25;97236.81;;;11.81;67.62
55066;BME280;40964;42.114;24.220;2023-03-26T03:20:50;97235.44;;;11.79;67.28
55066;BME280;40964;42.114;24.220;2023-03-26T03:23:18;97235.78;;;11.82;65.75
55066;BME280;40964;42.114;24.220;2023-03-26T03:25:44;97232.34;;;11.82;65.36
55066;BME280;40964;42.114;24.220;2023-03-26T03:28:10;97229.81;;;11.87;64.19
55066;BME280;40964;42.114;24.220;2023-03-26T03:30:36;97241.16;;;11.87;63.85
55066;BME280;40964;42.114;24.220;2023-03-26T03:33:02;97245.38;;;11.88;63.67
55066;BME280;40964;42.114;24.220;2023-03-26T03:35:28;97243.78;;;11.87;63.34
55066;BME280;40964;42.114;24.220;2023-03-26T03:37:58;97240.56;;;11.85;63.60
55066;BME280;40964;42.114;24.220;2023-03-26T03:40:24;97235.53;;;11.84;62.94
55066;BME280;40964;42.114;24.220;2023-03-26T03:42:49;97240.81;;;11.84;62.72
55066;BME280;40964;42.114;24.220;2023-03-26T03:45:16;97241.16;;;11.87;62.65
55066;BME280;40964;42.114;24.220;2023-03-26T03:47:41;97244.84;;;11.86;62.70
55066;BME280;40964;42.114;24.220;2023-03-26T03:50:08;97238.28;;;11.89;62.43
55066;BME280;40964;42.114;24.220;2023-03-26T03:52:35;97239.22;;;11.83;62.21
55066;BME280;40964;42.114;24.220;2023-03-26T03:55:00;97245.94;;;11.90;62.28
55066;BME280;40964;42.114;24.220;2023-03-26T03:57:26;97234.28;;;11.86;62.15
55066;BME280;40964;42.114;24.220;2023-03-26T03:59:53;97236.09;;;11.86;62.14
55066;BME280;40964;42.114;24.220;2023-03-26T04:02:18;97233.00;;;11.89;61.68
55066;BME280;40964;42.114;24.220;2023-03-26T04:04:59;97236.69;;;11.88;61.94
55066;BME280;40964;42.114;24.220;2023-03-26T04:07:26;97234.28;;;11.86;61.85
55066;BME280;40964;42.114;24.220;2023-03-26T04:09:52;97238.19;;;11.84;61.96
55066;BME280;40964;42.114;24.220;2023-03-26T04:12:18;97233.06;;;11.77;62.51
55066;BME280;40964;42.114;24.220;2023-03-26T04:14:44;97240.84;;;11.72;62.39
55066;BME280;40964;42.114;24.220;2023-03-26T04:17:10;97248.75;;;11.72;62.25
55066;BME280;40964;42.114;24.220;2023-03-26T04:19:38;97231.44;;;11.76;62.03
55066;BME280;40964;42.114;24.220;2023-03-26T04:22:04;97235.69;;;11.77;61.84
55066;BME280;40964;42.114;24.220;2023-03-26T04:24:31;97254.59;;;11.74;62.66
55066;BME280;40964;42.114;24.220;2023-03-26T04:27:04;97251.78;;;11.64;62.80
55066;BME280;40964;42.114;24.220;2023-03-26T04:29:35;97260.09;;;11.73;62.77
55066;BME280;40964;42.114;24.220;2023-03-26T04:34:46;97272.28;;;11.90;61.89
55066;BME280;40964;42.114;24.220;2023-03-26T04:37:24;97271.09;;;11.98;62.15
55066;BME280;40964;42.114;24.220;2023-03-26T04:39:52;97278.69;;;12.11;61.50
55066;BME280;40964;42.114;24.220;2023-03-26T04:42:18;97295.00;;;12.25;60.89
55066;BME280;40964;42.114;24.220;2023-03-26T04:44:45;97279.44;;;12.24;60.83
55066;BME280;40964;42.114;24.220;2023-03-26T04:47:17;97300.06;;;12.43;60.55
55066;BME280;40964;42.114;24.220;2023-03-26T04:49:44;97302.69;;;12.43;59.63
55066;BME280;40964;42.114;24.220;2023-03-26T04:52:11;97308.34;;;12.35;60.37
55066;BME280;40964;42.114;24.220;2023-03-26T04:54:37;97316.50;;;12.34;60.48
55066;BME280;40964;42.114;24.220;2023-03-26T04:57:06;97323.00;;;12.43;59.74
55066;BME280;40964;42.114;24.220;2023-03-26T04:59:33;97326.03;;;12.35;60.45
55066;BME280;40964;42.114;24.220;2023-03-26T05:02:01;97327.44;;;12.26;60.43
55066;BME280;40964;42.114;24.220;2023-03-26T05:04:27;97321.78;;;12.34;60.60
55066;BME280;40964;42.114;24.220;2023-03-26T05:06:58;97330.75;;;12.33;60.16
55066;BME280;40964;42.114;24.220;2023-03-26T05:09:24;97339.03;;;12.25;60.24
55066;BME280;40964;42.114;24.220;2023-03-26T05:11:50;97342.38;;;12.20;61.65
55066;BME280;40964;42.114;24.220;2023-03-26T05:14:16;97349.63;;;12.13;62.11
55066;BME280;40964;42.114;24.220;2023-03-26T05:16:42;97375.66;;;12.09;62.45
55066;BME280;40964;42.114;24.220;2023-03-26T05:19:09;97371.75;;;12.12;63.25
55066;BME280;40964;42.114;24.220;2023-03-26T05:21:35;97387.13;;;12.15;63.47
55066;BME280;40964;42.114;24.220;2023-03-26T05:24:00;97382.69;;;12.32;62.74
55066;BME280;40964;42.114;24.220;2023-03-26T05:26:26;97386.97;;;12.38;64.14
55066;BME280;40964;42.114;24.220;2023-03-26T05:28:53;97381.41;;;12.35;61.84
55066;BME280;40964;42.114;24.220;2023-03-26T05:31:19;97384.09;;;12.40;59.85
55066;BME280;40964;42.114;24.220;2023-03-26T05:33:45;97392.53;;;12.54;59.61
55066;BME280;40964;42.114;24.220;2023-03-26T05:36:12;97394.22;;;12.60;59.81
55066;BME280;40964;42.114;24.220;2023-03-26T05:38:40;97396.50;;;12.56;60.01
55066;BME280;40964;42.114;24.220;2023-03-26T05:41:08;97392.78;;;12.52;60.84
55066;BME280;40964;42.114;24.220;2023-03-26T05:43:34;97405.56;;;12.60;61.47
55066;BME280;40964;42.114;24.220;2023-03-26T05:46:00;97408.22;;;12.60;60.99
55066;BME280;40964;42.114;24.220;2023-03-26T05:48:26;97418.75;;;12.60;60.53
55066;BME280;40964;42.114;24.220;2023-03-26T05:50:54;97428.34;;;12.66;60.03
55066;BME280;40964;42.114;24.220;2023-03-26T05:53:21;97430.78;;;12.68;60.22
55066;BME280;40964;42.114;24.220;2023-03-26T05:55:47;97434.34;;;12.62;60.68
55066;BME280;40964;42.114;24.220;2023-03-26T05:58:30;97422.25;;;12.49;62.05
55066;BME280;40964;42.114;24.220;2023-03-26T06:01:03;97437.69;;;12.57;62.03
55066;BME280;40964;42.114;24.220;2023-03-26T06:03:30;97441.47;;;12.61;61.41
55066;BME280;40964;42.114;24.220;2023-03-26T06:05:56;97436.66;;;12.75;61.37
55066;BME280;40964;42.114;24.220;2023-03-26T06:08:22;97446.59;;;12.85;61.55
55066;BME280;40964;42.114;24.220;2023-03-26T06:10:47;97446.13;;;12.88;62.69
55066;BME280;40964;42.114;24.220;2023-03-26T06:13:15;97449.88;;;12.92;61.47
55066;BME280;40964;42.114;24.220;2023-03-26T06:15:41;97442.91;;;13.02;61.93
55066;BME280;40964;42.114;24.220;2023-03-26T06:18:06;97443.41;;;12.99;60.41
55066;BME280;40964;42.114;24.220;2023-03-26T06:20:32;97418.69;;;12.89;60.28
55066;BME280;40964;42.114;24.220;2023-03-26T06:22:57;97438.66;;;13.18;58.61
55066;BME280;40964;42.114;24.220;2023-03-26T06:25:23;97452.78;;;13.24;57.59
55066;BME280;40964;42.114;24.220;2023-03-26T06:27:48;97451.34;;;13.33;57.42
55066;BME280;40964;42.114;24.220;2023-03-26T06:30:14;97464.28;;;13.51;55.95
55066;BME280;40964;42.114;24.220;2023-03-26T06:32:42;97455.66;;;13.39;55.51
55066;BME280;40964;42.114;24.220;2023-03-26T06:35:07;97459.97;;;13.28;55.67
55066;BME280;40964;42.114;24.220;2023-03-26T06:37:33;97458.31;;;13.22;55.91
55066;BME280;40964;42.114;24.220;2023-03-26T06:39:59;97469.16;;;13.09;56.60
55066;BME280;40964;42.114;24.220;2023-03-26T06:42:24;97466.59;;;12.97;57.67
55066;BME280;40964;42.114;24.220;2023-03-26T06:44:50;97466.47;;;13.04;58.54
55066;BME280;40964;42.114;24.220;2023-03-26T06:47:15;97481.59;;;13.25;57.62
55066;BME280;40964;42.114;24.220;2023-03-26T06:49:40;97482.69;;;13.46;58.57
55066;BME280;40964;42.114;24.220;2023-03-26T06:52:06;97478.41;;;13.40;58.76
55066;BME280;40964;42.114;24.220;2023-03-26T06:54:31;97483.06;;;13.55;58.51
55066;BME280;40964;42.114;24.220;2023-03-26T06:56:57;97474.44;;;13.59;59.74
55066;BME280;40964;42.114;24.220;2023-03-26T06:59:24;97481.47;;;13.71;58.49
55066;BME280;40964;42.114;24.220;2023-03-26T07:01:50;97469.41;;;13.80;58.02
55066;BME280;40964;42.114;24.220;2023-03-26T07:04:15;97470.38;;;13.74;57.66
55066;BME280;40964;42.114;24.220;2023-03-26T07:06:41;97468.38;;;13.81;56.20
55066;BME280;40964;42.114;24.220;2023-03-26T07:09:06;97458.50;;;13.93;56.92
55066;BME280;40964;42.114;24.220;2023-03-26T07:11:32;97453.13;;;14.10;57.72
55066;BME280;40964;42.114;24.220;2023-03-26T07:13:57;97449.06;;;14.24;56.10
55066;BME280;40964;42.114;24.220;2023-03-26T07:16:23;97438.91;;;14.38;53.52
55066;BME280;40964;42.114;24.220;2023-03-26T07:18:49;97444.56;;;14.46;54.02
55066;BME280;40964;42.114;24.220;2023-03-26T07:21:15;97440.72;;;14.59;54.17
55066;BME280;40964;42.114;24.220;2023-03-26T07:23:41;97436.03;;;14.66;53.50
55066;BME280;40964;42.114;24.220;2023-03-26T07:26:35;97435.78;;;14.68;52.31
55066;BME280;40964;42.114;24.220;2023-03-26T07:46:20;97432.84;;;14.96;50.69
55066;BME280;40964;42.114;24.220;2023-03-26T07:48:50;97410.81;;;14.91;49.61
55066;BME280;40964;42.114;24.220;2023-03-26T07:51:18;97429.06;;;15.24;48.48
55066;BME280;40964;42.114;24.220;2023-03-26T07:53:44;97427.59;;;15.44;47.37
55066;BME280;40964;42.114;24.220;2023-03-26T07:56:14;97429.16;;;15.40;48.52
55066;BME280;40964;42.114;24.220;2023-03-26T08:04:31;97425.72;;;15.86;48.58
55066;BME280;40964;42.114;24.220;2023-03-26T08:10:05;97430.81;;;16.08;46.80
55066;BME280;40964;42.114;24.220;2023-03-26T08:13:02;97437.41;;;15.96;45.56
55066;BME280;40964;42.114;24.220;2023-03-26T08:21:11;97421.59;;;16.21;45.44
55066;BME280;40964;42.114;24.220;2023-03-26T08:31:52;97413.75;;;16.72;41.49
55066;BME280;40964;42.114;24.220;2023-03-26T08:34:18;97411.34;;;16.76;41.44
55066;BME280;40964;42.114;24.220;2023-03-26T08:36:43;97400.72;;;17.01;42.11
55066;BME280;40964;42.114;24.220;2023-03-26T08:39:09;97406.28;;;17.05;41.38
55066;BME280;40964;42.114;24.220;2023-03-26T09:04:12;97394.03;;;17.24;32.27
55066;BME280;40964;42.114;24.220;2023-03-26T10:35:50;97320.72;;;18.95;30.75
55066;BME280;40964;42.114;24.220;2023-03-26T10:38:28;97313.69;;;19.04;30.04
55066;BME280;40964;42.114;24.220;2023-03-26T10:47:18;97293.75;;;19.25;32.61
55066;BME280;40964;42.114;24.220;2023-03-26T10:49:48;97294.66;;;19.16;28.83
55066;BME280;40964;42.114;24.220;2023-03-26T10:52:24;97282.34;;;19.44;29.76
55066;BME280;40964;42.114;24.220;2023-03-26T10:55:18;97280.00;;;19.37;30.88
55066;BME280;40964;42.114;24.220;2023-03-26T10:57:59;97283.78;;;19.55;28.05
55066;BME280;40964;42.114;24.220;2023-03-26T11:00:27;97262.28;;;19.46;26.92
55066;BME280;40964;42.114;24.220;2023-03-26T11:13:58;97249.63;;;19.57;26.67
55066;BME280;40964;42.114;24.220;2023-03-26T11:16:40;97248.16;;;19.70;26.14
55066;BME280;40964;42.114;24.220;2023-03-26T11:19:23;97245.38;;;19.56;26.11
55066;BME280;40964;42.114;24.220;2023-03-26T11:41:26;97217.03;;;19.98;27.52
55066;BME280;40964;42.114;24.220;2023-03-26T11:49:02;97213.06;;;20.14;26.19
55066;BME280;40964;42.114;24.220;2023-03-26T11:52:35;97195.53;;;20.08;24.75
55066;BME280;40964;42.114;24.220;2023-03-26T12:00:47;97193.03;;;19.98;26.04
55066;BME280;40964;42.114;24.220;2023-03-26T12:11:40;97168.50;;;20.42;27.30
55066;BME280;40964;42.114;24.220;2023-03-26T12:20:35;97177.81;;;20.12;25.42
55066;BME280;40964;42.114;24.220;2023-03-26T12:31:25;97151.63;;;20.60;26.48
55066;BME280;40964;42.114;24.220;2023-03-26T12:48:48;97134.00;;;20.46;26.14
55066;BME280;40964;42.114;24.220;2023-03-26T13:07:24;97112.44;;;20.69;26.04
55066;BME280;40964;42.114;24.220;2023-03-26T13:17:20;97085.50;;;20.66;24.46
55066;BME280;40964;42.114;24.220;2023-03-26T13:28:57;97088.25;;;20.88;25.23
55066;BME280;40964;42.114;24.220;2023-03-26T13:31:27;97074.75;;;20.93;23.84
55066;BME280;40964;42.114;24.220;2023-03-26T13:37:23;97057.91;;;21.43;26.41
55066;BME280;40964;42.114;24.220;2023-03-26T13:40:57;97067.19;;;21.45;24.42
55066;BME280;40964;42.114;24.220;2023-03-26T13:45:53;97078.56;;;21.29;25.12
55066;BME280;40964;42.114;24.220;2023-03-26T13:48:27;97076.63;;;21.43;23.94
55066;BME280;40964;42.114;24.220;2023-03-26T13:51:21;97077.19;;;21.53;23.31
55066;BME280;40964;42.114;24.220;2023-03-26T14:05:08;97075.31;;;21.32;23.46
55066;BME280;40964;42.114;24.220;2023-03-26T14:07:47;97080.66;;;21.18;23.06
55066;BME280;40964;42.114;24.220;2023-03-26T14:10:21;97075.91;;;21.15;23.13
55066;BME280;40964;42.114;24.220;2023-03-26T14:15:27;97079.72;;;21.00;23.40
55066;BME280;40964;42.114;24.220;2023-03-26T14:32:25;97071.66;;;20.64;21.99
55066;BME280;40964;42.114;24.220;2023-03-26T14:37:55;97088.47;;;20.78;21.51
55066;BME280;40964;42.114;24.220;2023-03-26T14:52:12;97059.47;;;20.58;21.44
55066;BME280;40964;42.114;24.220;2023-03-26T14:54:42;97054.97;;;20.45;21.40
55066;BME280;40964;42.114;24.220;2023-03-26T15:05:58;97051.38;;;20.08;22.69
55066;BME280;40964;42.114;24.220;2023-03-26T15:11:23;97047.69;;;19.90;23.12
55066;BME280;40964;42.114;24.220;2023-03-26T15:14:23;97052.78;;;19.73;23.03
55066;BME280;40964;42.114;24.220;2023-03-26T15:31:32;97058.50;;;19.15;24.25
55066;BME280;40964;42.114;24.220;2023-03-26T15:48:28;97063.16;;;18.42;24.10
55066;BME280;40964;42.114;24.220;2023-03-26T15:54:08;97060.66;;;18.27;25.42
55066;BME280;40964;42.114;24.220;2023-03-26T15:59:13;97071.44;;;18.17;27.22
55066;BME280;40964;42.114;24.220;2023-03-26T16:12:24;97070.50;;;17.40;28.33
55066;BME280;40964;42.114;24.220;2023-03-26T16:20:54;97076.69;;;16.91;29.71
55066;BME280;40964;42.114;24.220;2023-03-26T16:23:31;97078.09;;;16.68;30.03
55066;BME280;40964;42.114;24.220;2023-03-26T16:26:11;97085.06;;;16.49;30.03
55066;BME280;40964;42.114;24.220;2023-03-26T16:36:25;97088.66;;;15.93;30.89
55066;BME280;40964;42.114;24.220;2023-03-26T16:41:28;97089.50;;;15.68;31.05
55066;BME280;40964;42.114;24.220;2023-03-26T16:47:36;97089.44;;;15.43;31.56
55066;BME280;40964;42.114;24.220;2023-03-26T16:58:19;97102.09;;;15.00;31.54
55066;BME280;40964;42.114;24.220;2023-03-26T17:01:16;97116.91;;;14.86;31.68
55066;BME280;40964;42.114;24.220;2023-03-26T17:03:53;97122.16;;;14.75;32.07
55066;BME280;40964;42.114;24.220;2023-03-26T17:12:02;97129.28;;;14.23;32.78
55066;BME280;40964;42.114;24.220;2023-03-26T17:14:52;97132.88;;;14.06;32.66
55066;BME280;40964;42.114;24.220;2023-03-26T17:18:23;97131.22;;;13.95;32.91
55066;BME280;40964;42.114;24.220;2023-03-26T17:32:06;97156.69;;;13.74;33.04
55066;BME280;40964;42.114;24.220;2023-03-26T17:42:27;97154.81;;;13.70;31.44
55066;BME280;40964;42.114;24.220;2023-03-26T17:44:58;97159.56;;;13.68;31.95
55066;BME280;40964;42.114;24.220;2023-03-26T17:50:20;97170.13;;;13.68;31.26
55066;BME280;40964;42.114;24.220;2023-03-26T17:52:56;97164.53;;;13.64;31.01
55066;BME280;40964;42.114;24.220;2023-03-26T17:55:30;97170.06;;;13.62;30.94
55066;BME280;40964;42.114;24.220;2023-03-26T17:57:58;97171.63;;;13.58;31.19
55066;BME280;40964;42.114;24.220;2023-03-26T18:00:30;97170.78;;;13.53;31.63
55066;BME280;40964;42.114;24.220;2023-03-26T18:03:27;97177.66;;;13.54;30.92
55066;BME280;40964;42.114;24.220;2023-03-26T18:06:07;97182.66;;;13.50;31.12
55066;BME280;40964;42.114;24.220;2023-03-26T18:11:59;97177.91;;;13.52;30.96
55066;BME280;40964;42.114;24.220;2023-03-26T18:17:20;97179.41;;;13.43;31.01
55066;BME280;40964;42.114;24.220;2023-03-26T18:20:01;97186.19;;;13.34;31.35
55066;BME280;40964;42.114;24.220;2023-03-26T18:22:30;97185.56;;;13.27;31.59
55066;BME280;40964;42.114;24.220;2023-03-26T18:24:59;97184.28;;;13.29;31.44
55066;BME280;40964;42.114;24.220;2023-03-26T18:27:35;97186.56;;;13.21;31.57
55066;BME280;40964;42.114;24.220;2023-03-26T18:30:14;97183.56;;;13.12;31.76
55066;BME280;40964;42.114;24.220;2023-03-26T18:32:52;97189.38;;;13.14;31.49
55066;BME280;40964;42.114;24.220;2023-03-26T18:35:24;97195.81;;;13.01;32.12
55066;BME280;40964;42.114;24.220;2023-03-26T18:37:53;97190.44;;;12.91;32.30
55066;BME280;40964;42.114;24.220;2023-03-26T18:40:30;97193.56;;;12.88;31.84
55066;BME280;40964;42.114;24.220;2023-03-26T18:42:57;97190.97;;;12.93;31.16
55066;BME280;40964;42.114;24.220;2023-03-26T18:45:36;97189.50;;;13.02;31.42
55066;BME280;40964;42.114;24.220;2023-03-26T18:48:16;97170.47;;;13.00;30.75
55066;BME280;40964;42.114;24.220;2023-03-26T18:50:43;97185.94;;;13.14;30.80
55066;BME280;40964;42.114;24.220;2023-03-26T18:53:18;97182.63;;;13.01;31.61
55066;BME280;40964;42.114;24.220;2023-03-26T18:55:45;97185.66;;;12.88;31.25
55066;BME280;40964;42.114;24.220;2023-03-26T18:58:25;97186.06;;;12.80;31.49
55066;BME280;40964;42.114;24.220;2023-03-26T19:01:11;97179.13;;;12.74;32.17
55066;BME280;40964;42.114;24.220;2023-03-26T19:03:39;97180.59;;;12.65;32.49
55066;BME280;40964;42.114;24.220;2023-03-26T19:06:09;97177.41;;;12.63;31.99
55066;BME280;40964;42.114;24.220;2023-03-26T19:08:38;97177.13;;;12.59;32.23
55066;BME280;40964;42.114;24.220;2023-03-26T19:11:07;97172.94;;;12.63;32.31
55066;BME280;40964;42.114;24.220;2023-03-26T19:13:35;97176.69;;;12.67;32.12
55066;BME280;40964;42.114;24.220;2023-03-26T19:16:10;97170.00;;;12.60;32.37
55066;BME280;40964;42.114;24.220;2023-03-26T19:18:39;97164.28;;;12.68;32.24
55066;BME280;40964;42.114;24.220;2023-03-26T19:21:06;97163.84;;;12.76;31.84
55066;BME280;40964;42.114;24.220;2023-03-26T19:23:38;97159.69;;;12.80;31.91
55066;BME280;40964;42.114;24.220;2023-03-26T19:26:07;97159.13;;;12.78;31.99
55066;BME280;40964;42.114;24.220;2023-03-26T19:28:36;97171.22;;;12.74;32.47
55066;BME280;40964;42.114;24.220;2023-03-26T19:31:35;97163.53;;;12.72;32.65
55066;BME280;40964;42.114;24.220;2023-03-26T19:39:16;97163.63;;;12.77;32.17
55066;BME280;40964;42.114;24.220;2023-03-26T19:41:42;97154.16;;;12.82;31.69
55066;BME280;40964;42.114;24.220;2023-03-26T19:44:28;97157.91;;;12.86;32.07
55066;BME280;40964;42.114;24.220;2023-03-26T19:47:12;97151.53;;;12.82;32.50
55066;BME280;40964;42.114;24.220;2023-03-26T19:52:21;97138.88;;;12.84;32.34
55066;BME280;40964;42.114;24.220;2023-03-26T19:54:58;97140.41;;;12.79;32.97
55066;BME280;40964;42.114;24.220;2023-03-26T19:57:26;97127.72;;;12.76;33.07
55066;BME280;40964;42.114;24.220;2023-03-26T19:59:52;97135.03;;;12.69;33.44
55066;BME280;40964;42.114;24.220;2023-03-26T20:02:18;97114.03;;;12.58;33.88
55066;BME280;40964;42.114;24.220;2023-03-26T20:04:44;97137.47;;;12.76;33.23
55066;BME280;40964;42.114;24.220;2023-03-26T20:07:29;97128.19;;;12.73;33.97
55066;BME280;40964;42.114;24.220;2023-03-26T20:09:55;97136.38;;;12.72;33.95
55066;BME280;40964;42.114;24.220;2023-03-26T20:12:21;97131.84;;;12.67;33.54
55066;BME280;40964;42.114;24.220;2023-03-26T20:14:46;97124.22;;;12.71;33.21
55066;BME280;40964;42.114;24.220;2023-03-26T20:17:18;97126.06;;;12.70;34.09
55066;BME280;40964;42.114;24.220;2023-03-26T20:19:45;97129.53;;;12.76;33.67
55066;BME280;40964;42.114;24.220;2023-03-26T20:22:16;97120.78;;;12.70;33.95
55066;BME280;40964;42.114;24.220;2023-03-26T20:24:44;97114.66;;;12.65;33.69
55066;BME280;40964;42.114;24.220;2023-03-26T20:27:10;97115.34;;;12.77;33.54
55066;BME280;40964;42.114;24.220;2023-03-26T20:29:37;97109.81;;;12.78;33.77
55066;BME280;40964;42.114;24.220;2023-03-26T20:32:03;97106.63;;;12.76;33.87
55066;BME280;40964;42.114;24.220;2023-03-26T20:34:33;97099.72;;;12.75;34.05
55066;BME280;40964;42.114;24.220;2023-03-26T20:36:58;97096.06;;;12.76;34.25
55066;BME280;40964;42.114;24.220;2023-03-26T20:39:24;97093.34;;;12.71;34.20
55066;BME280;40964;42.114;24.220;2023-03-26T20:41:52;97095.25;;;12.76;34.47
55066;BME280;40964;42.114;24.220;2023-03-26T20:44:19;97102.13;;;12.77;33.71
55066;BME280;40964;42.114;24.220;2023-03-26T20:46:46;97091.38;;;12.84;33.87
55066;BME280;40964;42.114;24.220;2023-03-26T20:49:13;97092.66;;;12.81;33.75